sensor_id;sensor_type;location;lat;lon;timestamp;temperature;humidity
10891;DHT22;5498;50.928;11.598;2023-02-28T00:00:04;-0.80;93.40
10891;DHT22;5498;50.928;11.598;2023-02-28T00:03:10;-1.00;93.80
10891;DHT22;5498;50.928;11.598;2023-02-28T00:06:13;-1.00;93.90
10891;DHT22;5498;50.928;11.598;2023-02-28T00:09:15;-1.20;94.10
10891;DHT22;5498;50.928;11.598;2023-02-28T00:12:17;-1.20;94.10
10891;DHT22;5498;50.928;11.598;2023-02-28T00:15:19;-1.10;94.40
10891;DHT22;5498;50.928;11.598;2023-02-28T00:18:21;-1.20;94.40
10891;DHT22;5498;50.928;11.598;2023-02-28T00:21:24;-1.30;94.30
10891;DHT22;5498;50.928;11.598;2023-02-28T00:24:26;-0.80;94.50
10891;DHT22;5498;50.928;11.598;2023-02-28T00:27:28;-1.00;94.30
10891;DHT22;5498;50.928;11.598;2023-02-28T00:30:30;-0.50;94.20
10891;DHT22;5498;50.928;11.598;2023-02-28T00:33:32;-0.50;93.80
10891;DHT22;5498;50.928;11.598;2023-02-28T00:36:35;-0.50;93.60
10891;DHT22;5498;50.928;11.598;2023-02-28T00:39:38;-0.80;93.50
10891;DHT22;5498;50.928;11.598;2023-02-28T00:42:41;-0.70;94.00
10891;DHT22;5498;50.928;11.598;2023-02-28T00:45:43;-0.80;93.70
10891;DHT22;5498;50.928;11.598;2023-02-28T00:48:45;-0.70;93.90
10891;DHT22;5498;50.928;11.598;2023-02-28T00:51:49;-0.60;93.60
10891;DHT22;5498;50.928;11.598;2023-02-28T00:54:51;-0.50;93.50
10891;DHT22;5498;50.928;11.598;2023-02-28T00:57:53;-0.20;93.30
10891;DHT22;5498;50.928;11.598;2023-02-28T01:00:54;-0.50;93.20
10891;DHT22;5498;50.928;11.598;2023-02-28T01:03:56;-0.10;93.20
10891;DHT22;5498;50.928;11.598;2023-02-28T01:07:00;-0.20;93.00
10891;DHT22;5498;50.928;11.598;2023-02-28T01:10:01;-1.20;92.60
10891;DHT22;5498;50.928;11.598;2023-02-28T01:13:04;-0.70;93.50
10891;DHT22;5498;50.928;11.598;2023-02-28T01:16:06;-1.00;93.60
10891;DHT22;5498;50.928;11.598;2023-02-28T01:19:09;-1.10;94.00
10891;DHT22;5498;50.928;11.598;2023-02-28T01:22:12;-0.60;94.30
10891;DHT22;5498;50.928;11.598;2023-02-28T01:25:14;-1.10;94.10
10891;DHT22;5498;50.928;11.598;2023-02-28T01:28:16;-1.10;94.20
10891;DHT22;5498;50.928;11.598;2023-02-28T01:31:19;-1.10;94.20
10891;DHT22;5498;50.928;11.598;2023-02-28T01:34:22;-1.30;94.40
10891;DHT22;5498;50.928;11.598;2023-02-28T01:37:25;-1.40;94.50
10891;DHT22;5498;50.928;11.598;2023-02-28T01:40:28;-1.30;94.90
10891;DHT22;5498;50.928;11.598;2023-02-28T01:43:31;-1.50;94.80
10891;DHT22;5498;50.928;11.598;2023-02-28T01:46:37;-1.50;95.10
10891;DHT22;5498;50.928;11.598;2023-02-28T01:49:39;-1.60;95.20
10891;DHT22;5498;50.928;11.598;2023-02-28T01:52:43;-1.60;95.30
10891;DHT22;5498;50.928;11.598;2023-02-28T01:55:48;-1.60;95.30
10891;DHT22;5498;50.928;11.598;2023-02-28T01:58:53;-1.70;95.50
10891;DHT22;5498;50.928;11.598;2023-02-28T02:01:55;-1.50;95.40
10891;DHT22;5498;50.928;11.598;2023-02-28T02:05:00;-1.60;95.20
10891;DHT22;5498;50.928;11.598;2023-02-28T02:08:08;-1.50;95.30
10891;DHT22;5498;50.928;11.598;2023-02-28T02:11:14;-1.40;95.20
10891;DHT22;5498;50.928;11.598;2023-02-28T02:14:32;-1.40;95.10
10891;DHT22;5498;50.928;11.598;2023-02-28T02:17:43;-1.40;95.00
10891;DHT22;5498;50.928;11.598;2023-02-28T02:21:09;-1.40;95.10
10891;DHT22;5498;50.928;11.598;2023-02-28T02:24:43;-1.20;95.10
10891;DHT22;5498;50.928;11.598;2023-02-28T02:28:11;-1.30;95.00
10891;DHT22;5498;50.928;11.598;2023-02-28T02:31:52;-1.20;95.10
10891;DHT22;5498;50.928;11.598;2023-02-28T02:35:08;-1.30;94.90
10891;DHT22;5498;50.928;11.598;2023-02-28T02:38:19;-1.20;94.90
10891;DHT22;5498;50.928;11.598;2023-02-28T02:41:35;-1.20;94.70
10891;DHT22;5498;50.928;11.598;2023-02-28T02:44:42;-1.20;94.60
10891;DHT22;5498;50.928;11.598;2023-02-28T02:47:45;-1.30;94.70
10891;DHT22;5498;50.928;11.598;2023-02-28T02:50:52;-1.20;94.70
10891;DHT22;5498;50.928;11.598;2023-02-28T02:53:59;-1.10;94.70
10891;DHT22;5498;50.928;11.598;2023-02-28T02:57:08;-1.10;94.40
10891;DHT22;5498;50.928;11.598;2023-02-28T03:00:17;-1.20;94.10
10891;DHT22;5498;50.928;11.598;2023-02-28T03:03:22;-1.40;94.30
10891;DHT22;5498;50.928;11.598;2023-02-28T03:06:30;-1.40;94.80
10891;DHT22;5498;50.928;11.598;2023-02-28T03:09:34;-1.40;94.50
10891;DHT22;5498;50.928;11.598;2023-02-28T03:12:47;-1.40;94.40
10891;DHT22;5498;50.928;11.598;2023-02-28T03:16:03;-1.60;94.60
10891;DHT22;5498;50.928;11.598;2023-02-28T03:19:43;-1.70;94.80
10891;DHT22;5498;50.928;11.598;2023-02-28T03:22:57;-1.60;95.10
10891;DHT22;5498;50.928;11.598;2023-02-28T03:26:06;-1.70;94.70
10891;DHT22;5498;50.928;11.598;2023-02-28T03:29:17;-1.60;94.70
10891;DHT22;5498;50.928;11.598;2023-02-28T03:32:26;-1.80;94.70
10891;DHT22;5498;50.928;11.598;2023-02-28T03:35:32;-1.80;94.70
10891;DHT22;5498;50.928;11.598;2023-02-28T03:38:39;-1.70;94.80
10891;DHT22;5498;50.928;11.598;2023-02-28T03:41:45;-1.80;94.80
10891;DHT22;5498;50.928;11.598;2023-02-28T03:44:53;-1.70;94.90
10891;DHT22;5498;50.928;11.598;2023-02-28T03:47:58;-1.50;94.90
10891;DHT22;5498;50.928;11.598;2023-02-28T03:51:05;-1.50;94.60
10891;DHT22;5498;50.928;11.598;2023-02-28T03:54:12;-1.50;94.40
10891;DHT22;5498;50.928;11.598;2023-02-28T03:57:22;-1.70;94.40
10891;DHT22;5498;50.928;11.598;2023-02-28T04:00:31;-1.70;94.80
10891;DHT22;5498;50.928;11.598;2023-02-28T04:03:35;-1.60;94.90
10891;DHT22;5498;50.928;11.598;2023-02-28T04:06:37;-1.60;94.80
10891;DHT22;5498;50.928;11.598;2023-02-28T04:09:41;-1.60;94.60
10891;DHT22;5498;50.928;11.598;2023-02-28T04:12:43;-1.70;94.50
10891;DHT22;5498;50.928;11.598;2023-02-28T04:15:45;-1.50;94.60
10891;DHT22;5498;50.928;11.598;2023-02-28T04:18:47;-1.40;94.40
10891;DHT22;5498;50.928;11.598;2023-02-28T04:21:50;-1.40;94.30
10891;DHT22;5498;50.928;11.598;2023-02-28T04:24:55;-1.50;94.20
10891;DHT22;5498;50.928;11.598;2023-02-28T04:27:56;-1.10;94.20
10891;DHT22;5498;50.928;11.598;2023-02-28T04:31:01;-1.80;94.20
10891;DHT22;5498;50.928;11.598;2023-02-28T04:34:04;-1.60;94.70
10891;DHT22;5498;50.928;11.598;2023-02-28T04:37:06;-1.60;94.60
10891;DHT22;5498;50.928;11.598;2023-02-28T04:40:11;-1.70;94.40
10891;DHT22;5498;50.928;11.598;2023-02-28T04:43:14;-1.70;94.40
10891;DHT22;5498;50.928;11.598;2023-02-28T04:46:16;-1.70;94.40
10891;DHT22;5498;50.928;11.598;2023-02-28T04:49:18;-1.60;94.40
10891;DHT22;5498;50.928;11.598;2023-02-28T04:52:20;-1.80;94.20
10891;DHT22;5498;50.928;11.598;2023-02-28T04:55:23;-1.70;94.30
10891;DHT22;5498;50.928;11.598;2023-02-28T04:58:25;-1.80;94.20
10891;DHT22;5498;50.928;11.598;2023-02-28T05:01:29;-1.70;94.30
10891;DHT22;5498;50.928;11.598;2023-02-28T05:04:33;-1.80;94.40
10891;DHT22;5498;50.928;11.598;2023-02-28T05:07:35;-1.70;94.40
10891;DHT22;5498;50.928;11.598;2023-02-28T05:10:38;-1.80;94.10
10891;DHT22;5498;50.928;11.598;2023-02-28T05:13:40;-1.30;94.10
10891;DHT22;5498;50.928;11.598;2023-02-28T05:16:42;-2.00;93.90
10891;DHT22;5498;50.928;11.598;2023-02-28T05:19:44;-2.20;94.10
10891;DHT22;5498;50.928;11.598;2023-02-28T05:22:46;-2.20;94.20
10891;DHT22;5498;50.928;11.598;2023-02-28T05:25:50;-2.20;94.40
10891;DHT22;5498;50.928;11.598;2023-02-28T05:28:52;-2.40;94.30
10891;DHT22;5498;50.928;11.598;2023-02-28T05:31:54;-2.90;94.70
10891;DHT22;5498;50.928;11.598;2023-02-28T05:34:56;-2.80;95.00
10891;DHT22;5498;50.928;11.598;2023-02-28T05:37:58;-2.80;95.00
10891;DHT22;5498;50.928;11.598;2023-02-28T05:41:06;-2.80;95.10
10891;DHT22;5498;50.928;11.598;2023-02-28T05:44:08;-2.80;95.10
10891;DHT22;5498;50.928;11.598;2023-02-28T05:47:10;-2.70;95.00
10891;DHT22;5498;50.928;11.598;2023-02-28T05:50:15;-2.90;94.70
10891;DHT22;5498;50.928;11.598;2023-02-28T05:53:17;-2.80;94.90
10891;DHT22;5498;50.928;11.598;2023-02-28T05:56:20;-2.80;94.80
10891;DHT22;5498;50.928;11.598;2023-02-28T05:59:22;-2.60;94.70
10891;DHT22;5498;50.928;11.598;2023-02-28T06:02:24;-2.60;94.50
10891;DHT22;5498;50.928;11.598;2023-02-28T06:05:26;-2.70;94.30
10891;DHT22;5498;50.928;11.598;2023-02-28T06:08:28;-2.50;94.50
10891;DHT22;5498;50.928;11.598;2023-02-28T06:11:31;-2.90;94.10
10891;DHT22;5498;50.928;11.598;2023-02-28T06:14:34;-3.00;94.40
10891;DHT22;5498;50.928;11.598;2023-02-28T06:17:36;-3.00;94.70
10891;DHT22;5498;50.928;11.598;2023-02-28T06:20:38;-3.10;94.70
10891;DHT22;5498;50.928;11.598;2023-02-28T06:23:40;-3.30;94.70
10891;DHT22;5498;50.928;11.598;2023-02-28T06:26:43;-3.40;95.00
10891;DHT22;5498;50.928;11.598;2023-02-28T06:29:45;-3.20;95.10
10891;DHT22;5498;50.928;11.598;2023-02-28T06:32:47;-2.90;95.00
10891;DHT22;5498;50.928;11.598;2023-02-28T06:35:50;-2.80;94.60
10891;DHT22;5498;50.928;11.598;2023-02-28T06:38:52;-3.00;94.50
10891;DHT22;5498;50.928;11.598;2023-02-28T06:41:57;-2.90;94.60
10891;DHT22;5498;50.928;11.598;2023-02-28T06:44:59;-2.90;94.40
10891;DHT22;5498;50.928;11.598;2023-02-28T06:48:03;-2.90;94.40
10891;DHT22;5498;50.928;11.598;2023-02-28T06:51:08;-2.90;94.40
10891;DHT22;5498;50.928;11.598;2023-02-28T06:54:12;-2.90;94.40
10891;DHT22;5498;50.928;11.598;2023-02-28T06:57:17;-3.00;94.50
10891;DHT22;5498;50.928;11.598;2023-02-28T07:00:20;-2.80;94.50
10891;DHT22;5498;50.928;11.598;2023-02-28T07:03:22;-2.70;94.30
10891;DHT22;5498;50.928;11.598;2023-02-28T07:06:24;-2.90;94.20
10891;DHT22;5498;50.928;11.598;2023-02-28T07:09:26;-2.90;94.40
10891;DHT22;5498;50.928;11.598;2023-02-28T07:12:32;-2.70;94.40
10891;DHT22;5498;50.928;11.598;2023-02-28T07:15:34;-2.60;94.40
10891;DHT22;5498;50.928;11.598;2023-02-28T07:18:36;-2.10;94.30
10891;DHT22;5498;50.928;11.598;2023-02-28T07:21:38;-2.20;94.00
10891;DHT22;5498;50.928;11.598;2023-02-28T07:24:40;-2.00;93.70
10891;DHT22;5498;50.928;11.598;2023-02-28T07:27:43;-1.90;93.50
10891;DHT22;5498;50.928;11.598;2023-02-28T07:30:46;-1.80;93.20
10891;DHT22;5498;50.928;11.598;2023-02-28T07:33:48;-1.90;92.70
10891;DHT22;5498;50.928;11.598;2023-02-28T07:36:52;-1.80;92.80
10891;DHT22;5498;50.928;11.598;2023-02-28T07:39:55;-1.80;92.70
10891;DHT22;5498;50.928;11.598;2023-02-28T07:42:59;-1.90;92.50
10891;DHT22;5498;50.928;11.598;2023-02-28T07:46:03;-1.90;92.80
10891;DHT22;5498;50.928;11.598;2023-02-28T07:49:06;-1.90;92.90
10891;DHT22;5498;50.928;11.598;2023-02-28T07:52:08;-1.90;93.00
10891;DHT22;5498;50.928;11.598;2023-02-28T07:55:10;-1.90;92.90
10891;DHT22;5498;50.928;11.598;2023-02-28T07:58:13;-1.70;93.30
10891;DHT22;5498;50.928;11.598;2023-02-28T08:01:15;-1.60;93.20
10891;DHT22;5498;50.928;11.598;2023-02-28T08:04:18;-1.50;93.10
10891;DHT22;5498;50.928;11.598;2023-02-28T08:07:19;-1.30;93.10
10891;DHT22;5498;50.928;11.598;2023-02-28T08:10:21;-1.00;93.00
10891;DHT22;5498;50.928;11.598;2023-02-28T08:13:25;-0.90;92.60
10891;DHT22;5498;50.928;11.598;2023-02-28T08:16:27;-0.50;92.50
10891;DHT22;5498;50.928;11.598;2023-02-28T08:19:30;0.20;92.30
10891;DHT22;5498;50.928;11.598;2023-02-28T08:22:32;0.10;91.90
10891;DHT22;5498;50.928;11.598;2023-02-28T08:25:33;0.40;91.50
10891;DHT22;5498;50.928;11.598;2023-02-28T08:28:36;0.70;91.30
10891;DHT22;5498;50.928;11.598;2023-02-28T08:31:38;1.00;90.80
10891;DHT22;5498;50.928;11.598;2023-02-28T08:34:40;1.30;90.60
10891;DHT22;5498;50.928;11.598;2023-02-28T08:37:42;1.60;90.40
10891;DHT22;5498;50.928;11.598;2023-02-28T08:40:44;1.90;90.10
10891;DHT22;5498;50.928;11.598;2023-02-28T08:43:47;2.20;90.00
10891;DHT22;5498;50.928;11.598;2023-02-28T08:46:49;2.50;89.30
10891;DHT22;5498;50.928;11.598;2023-02-28T08:49:50;2.60;88.80
10891;DHT22;5498;50.928;11.598;2023-02-28T08:52:52;3.20;88.60
10891;DHT22;5498;50.928;11.598;2023-02-28T08:55:58;3.10;87.60
10891;DHT22;5498;50.928;11.598;2023-02-28T08:59:01;3.20;87.20
10891;DHT22;5498;50.928;11.598;2023-02-28T09:02:03;3.40;86.40
10891;DHT22;5498;50.928;11.598;2023-02-28T09:05:06;3.50;84.00
10891;DHT22;5498;50.928;11.598;2023-02-28T09:08:08;3.10;76.50
10891;DHT22;5498;50.928;11.598;2023-02-28T09:11:10;2.50;76.60
10891;DHT22;5498;50.928;11.598;2023-02-28T09:14:13;2.30;75.40
10891;DHT22;5498;50.928;11.598;2023-02-28T09:17:18;2.30;76.20
10891;DHT22;5498;50.928;11.598;2023-02-28T09:20:21;2.10;75.20
10891;DHT22;5498;50.928;11.598;2023-02-28T09:23:23;1.90;75.00
10891;DHT22;5498;50.928;11.598;2023-02-28T09:26:27;1.90;74.70
10891;DHT22;5498;50.928;11.598;2023-02-28T09:29:30;2.00;74.00
10891;DHT22;5498;50.928;11.598;2023-02-28T09:32:34;2.10;74.90
10891;DHT22;5498;50.928;11.598;2023-02-28T09:35:36;2.20;74.40
10891;DHT22;5498;50.928;11.598;2023-02-28T09:38:38;1.90;73.00
10891;DHT22;5498;50.928;11.598;2023-02-28T09:41:42;2.40;73.40
10891;DHT22;5498;50.928;11.598;2023-02-28T09:44:50;2.30;70.50
10891;DHT22;5498;50.928;11.598;2023-02-28T09:47:54;2.70;70.70
10891;DHT22;5498;50.928;11.598;2023-02-28T09:51:02;2.30;67.80
10891;DHT22;5498;50.928;11.598;2023-02-28T09:54:05;1.90;66.90
10891;DHT22;5498;50.928;11.598;2023-02-28T09:57:10;1.70;69.20
10891;DHT22;5498;50.928;11.598;2023-02-28T10:00:21;2.20;70.50
10891;DHT22;5498;50.928;11.598;2023-02-28T10:03:30;2.30;69.60
10891;DHT22;5498;50.928;11.598;2023-02-28T10:06:38;2.10;66.90
10891;DHT22;5498;50.928;11.598;2023-02-28T10:09:45;2.10;68.00
10891;DHT22;5498;50.928;11.598;2023-02-28T10:12:49;2.20;68.70
10891;DHT22;5498;50.928;11.598;2023-02-28T10:15:59;2.40;68.00
10891;DHT22;5498;50.928;11.598;2023-02-28T10:19:05;2.30;65.40
10891;DHT22;5498;50.928;11.598;2023-02-28T10:22:12;2.50;66.40
10891;DHT22;5498;50.928;11.598;2023-02-28T10:25:20;2.30;67.10
10891;DHT22;5498;50.928;11.598;2023-02-28T10:28:25;2.30;66.60
10891;DHT22;5498;50.928;11.598;2023-02-28T10:31:29;2.30;66.30
10891;DHT22;5498;50.928;11.598;2023-02-28T10:34:31;2.10;66.60
10891;DHT22;5498;50.928;11.598;2023-02-28T10:37:33;2.20;65.70
10891;DHT22;5498;50.928;11.598;2023-02-28T10:40:39;2.30;65.70
10891;DHT22;5498;50.928;11.598;2023-02-28T10:43:42;2.50;66.20
10891;DHT22;5498;50.928;11.598;2023-02-28T10:46:46;2.90;66.60
10891;DHT22;5498;50.928;11.598;2023-02-28T10:49:50;3.40;66.80
10891;DHT22;5498;50.928;11.598;2023-02-28T10:52:53;3.00;62.90
10891;DHT22;5498;50.928;11.598;2023-02-28T10:55:57;2.70;64.40
10891;DHT22;5498;50.928;11.598;2023-02-28T10:59:03;3.10;65.00
10891;DHT22;5498;50.928;11.598;2023-02-28T11:02:34;2.80;64.10
10891;DHT22;5498;50.928;11.598;2023-02-28T11:05:37;2.70;65.00
10891;DHT22;5498;50.928;11.598;2023-02-28T11:08:46;2.60;65.10
10891;DHT22;5498;50.928;11.598;2023-02-28T11:11:49;2.60;65.60
10891;DHT22;5498;50.928;11.598;2023-02-28T11:14:55;2.50;66.50
10891;DHT22;5498;50.928;11.598;2023-02-28T11:18:02;2.20;66.40
10891;DHT22;5498;50.928;11.598;2023-02-28T11:21:09;2.10;67.40
10891;DHT22;5498;50.928;11.598;2023-02-28T11:24:23;2.60;68.70
10891;DHT22;5498;50.928;11.598;2023-02-28T11:27:46;2.60;67.80
10891;DHT22;5498;50.928;11.598;2023-02-28T11:31:00;2.30;67.30
10891;DHT22;5498;50.928;11.598;2023-02-28T11:34:24;2.30;67.40
10891;DHT22;5498;50.928;11.598;2023-02-28T11:37:28;2.50;66.90
10891;DHT22;5498;50.928;11.598;2023-02-28T11:40:38;2.50;67.20
10891;DHT22;5498;50.928;11.598;2023-02-28T11:43:57;2.90;66.70
10891;DHT22;5498;50.928;11.598;2023-02-28T11:47:12;3.60;66.70
10891;DHT22;5498;50.928;11.598;2023-02-28T11:50:32;3.30;65.80
10891;DHT22;5498;50.928;11.598;2023-02-28T11:53:53;3.00;65.40
10891;DHT22;5498;50.928;11.598;2023-02-28T11:57:28;3.30;65.70
10891;DHT22;5498;50.928;11.598;2023-02-28T12:01:00;2.90;64.20
10891;DHT22;5498;50.928;11.598;2023-02-28T12:04:24;2.20;65.10
10891;DHT22;5498;50.928;11.598;2023-02-28T12:07:34;2.00;66.30
10891;DHT22;5498;50.928;11.598;2023-02-28T12:10:53;2.10;67.10
10891;DHT22;5498;50.928;11.598;2023-02-28T12:14:25;2.20;66.40
10891;DHT22;5498;50.928;11.598;2023-02-28T12:17:46;2.50;66.00
10891;DHT22;5498;50.928;11.598;2023-02-28T12:21:01;2.50;65.90
10891;DHT22;5498;50.928;11.598;2023-02-28T12:24:23;2.90;66.40
10891;DHT22;5498;50.928;11.598;2023-02-28T12:27:34;3.00;65.40
10891;DHT22;5498;50.928;11.598;2023-02-28T12:30:42;3.30;65.00
10891;DHT22;5498;50.928;11.598;2023-02-28T12:33:52;3.20;65.00
10891;DHT22;5498;50.928;11.598;2023-02-28T12:37:01;2.90;64.70
10891;DHT22;5498;50.928;11.598;2023-02-28T12:40:12;2.50;65.70
10891;DHT22;5498;50.928;11.598;2023-02-28T12:43:17;2.60;65.50
10891;DHT22;5498;50.928;11.598;2023-02-28T12:46:22;2.20;66.50
10891;DHT22;5498;50.928;11.598;2023-02-28T12:49:27;2.30;67.70
10891;DHT22;5498;50.928;11.598;2023-02-28T12:52:40;2.60;67.00
10891;DHT22;5498;50.928;11.598;2023-02-28T12:55:50;2.60;66.50
10891;DHT22;5498;50.928;11.598;2023-02-28T12:58:58;2.60;66.20
10891;DHT22;5498;50.928;11.598;2023-02-28T13:06:12;2.20;67.00
10891;DHT22;5498;50.928;11.598;2023-02-28T13:09:20;2.70;67.90
10891;DHT22;5498;50.928;11.598;2023-02-28T13:12:23;2.60;66.80
10891;DHT22;5498;50.928;11.598;2023-02-28T13:15:26;2.40;65.80
10891;DHT22;5498;50.928;11.598;2023-02-28T13:18:32;2.40;67.40
10891;DHT22;5498;50.928;11.598;2023-02-28T13:21:44;2.70;68.10
10891;DHT22;5498;50.928;11.598;2023-02-28T13:24:48;2.40;66.80
10891;DHT22;5498;50.928;11.598;2023-02-28T13:27:53;2.50;67.70
10891;DHT22;5498;50.928;11.598;2023-02-28T13:31:05;2.50;68.00
10891;DHT22;5498;50.928;11.598;2023-02-28T13:34:15;2.70;67.60
10891;DHT22;5498;50.928;11.598;2023-02-28T13:37:34;3.10;67.60
10891;DHT22;5498;50.928;11.598;2023-02-28T13:40:37;3.10;67.00
10891;DHT22;5498;50.928;11.598;2023-02-28T13:44:00;2.60;67.00
10891;DHT22;5498;50.928;11.598;2023-02-28T13:47:33;2.90;67.90
10891;DHT22;5498;50.928;11.598;2023-02-28T13:50:38;3.10;67.80
10891;DHT22;5498;50.928;11.598;2023-02-28T13:53:55;3.00;67.60
10891;DHT22;5498;50.928;11.598;2023-02-28T13:57:11;2.80;68.60
10891;DHT22;5498;50.928;11.598;2023-02-28T14:00:28;2.80;68.40
10891;DHT22;5498;50.928;11.598;2023-02-28T14:03:45;2.60;68.30
10891;DHT22;5498;50.928;11.598;2023-02-28T14:06:55;2.40;67.80
10891;DHT22;5498;50.928;11.598;2023-02-28T14:10:03;2.50;68.60
10891;DHT22;5498;50.928;11.598;2023-02-28T14:13:14;2.30;69.20
10891;DHT22;5498;50.928;11.598;2023-02-28T14:16:47;2.30;69.30
10891;DHT22;5498;50.928;11.598;2023-02-28T14:19:50;2.40;69.50
10891;DHT22;5498;50.928;11.598;2023-02-28T14:23:01;2.10;69.70
10891;DHT22;5498;50.928;11.598;2023-02-28T14:26:17;2.20;70.70
10891;DHT22;5498;50.928;11.598;2023-02-28T14:33:18;2.50;69.10
10891;DHT22;5498;50.928;11.598;2023-02-28T14:36:26;2.70;68.70
10891;DHT22;5498;50.928;11.598;2023-02-28T14:39:33;2.50;68.60
10891;DHT22;5498;50.928;11.598;2023-02-28T14:42:38;2.50;68.50
10891;DHT22;5498;50.928;11.598;2023-02-28T14:45:49;2.50;69.00
10891;DHT22;5498;50.928;11.598;2023-02-28T14:48:53;2.60;68.60
10891;DHT22;5498;50.928;11.598;2023-02-28T14:52:05;2.60;68.80
10891;DHT22;5498;50.928;11.598;2023-02-28T14:55:15;2.50;69.50
10891;DHT22;5498;50.928;11.598;2023-02-28T14:58:24;2.40;69.80
10891;DHT22;5498;50.928;11.598;2023-02-28T15:01:27;2.10;70.40
10891;DHT22;5498;50.928;11.598;2023-02-28T15:04:30;2.70;70.20
10891;DHT22;5498;50.928;11.598;2023-02-28T15:07:33;2.50;70.20
10891;DHT22;5498;50.928;11.598;2023-02-28T15:10:35;2.70;69.50
10891;DHT22;5498;50.928;11.598;2023-02-28T15:13:40;2.50;69.10
10891;DHT22;5498;50.928;11.598;2023-02-28T15:16:51;2.60;70.50
10891;DHT22;5498;50.928;11.598;2023-02-28T15:19:56;2.70;70.90
10891;DHT22;5498;50.928;11.598;2023-02-28T15:22:58;2.70;70.50
10891;DHT22;5498;50.928;11.598;2023-02-28T15:26:01;2.70;70.30
10891;DHT22;5498;50.928;11.598;2023-02-28T15:29:06;2.50;71.00
10891;DHT22;5498;50.928;11.598;2023-02-28T15:32:24;2.60;72.00
10891;DHT22;5498;50.928;11.598;2023-02-28T15:35:31;2.80;71.40
10891;DHT22;5498;50.928;11.598;2023-02-28T15:38:35;2.90;71.30
10891;DHT22;5498;50.928;11.598;2023-02-28T15:41:38;2.90;71.30
10891;DHT22;5498;50.928;11.598;2023-02-28T15:44:39;2.50;71.10
10891;DHT22;5498;50.928;11.598;2023-02-28T15:47:46;2.30;72.10
10891;DHT22;5498;50.928;11.598;2023-02-28T15:50:52;2.50;73.10
10891;DHT22;5498;50.928;11.598;2023-02-28T15:53:59;2.50;72.50
10891;DHT22;5498;50.928;11.598;2023-02-28T15:57:04;2.50;72.50
10891;DHT22;5498;50.928;11.598;2023-02-28T16:00:12;2.30;72.60
10891;DHT22;5498;50.928;11.598;2023-02-28T16:03:26;2.50;72.20
10891;DHT22;5498;50.928;11.598;2023-02-28T16:06:38;2.20;71.80
10891;DHT22;5498;50.928;11.598;2023-02-28T16:09:42;2.50;72.20
10891;DHT22;5498;50.928;11.598;2023-02-28T16:12:44;2.30;71.50
10891;DHT22;5498;50.928;11.598;2023-02-28T16:15:46;2.30;72.00
10891;DHT22;5498;50.928;11.598;2023-02-28T16:18:49;2.30;72.40
10891;DHT22;5498;50.928;11.598;2023-02-28T16:21:53;2.20;72.80
10891;DHT22;5498;50.928;11.598;2023-02-28T16:24:54;2.00;73.90
10891;DHT22;5498;50.928;11.598;2023-02-28T16:27:56;2.20;73.60
10891;DHT22;5498;50.928;11.598;2023-02-28T16:31:02;2.20;73.40
10891;DHT22;5498;50.928;11.598;2023-02-28T16:34:05;2.20;73.10
10891;DHT22;5498;50.928;11.598;2023-02-28T16:37:12;1.90;73.10
10891;DHT22;5498;50.928;11.598;2023-02-28T16:40:16;2.00;73.80
10891;DHT22;5498;50.928;11.598;2023-02-28T16:43:23;2.30;73.70
10891;DHT22;5498;50.928;11.598;2023-02-28T16:46:30;2.20;73.40
10891;DHT22;5498;50.928;11.598;2023-02-28T16:49:32;2.10;73.60
10891;DHT22;5498;50.928;11.598;2023-02-28T16:52:36;2.30;73.40
10891;DHT22;5498;50.928;11.598;2023-02-28T16:55:37;2.30;72.80
10891;DHT22;5498;50.928;11.598;2023-02-28T16:58:39;2.10;73.20
10891;DHT22;5498;50.928;11.598;2023-02-28T17:01:41;1.60;72.80
10891;DHT22;5498;50.928;11.598;2023-02-28T17:04:43;2.10;73.80
10891;DHT22;5498;50.928;11.598;2023-02-28T17:07:46;2.00;74.00
10891;DHT22;5498;50.928;11.598;2023-02-28T17:10:48;2.10;74.10
10891;DHT22;5498;50.928;11.598;2023-02-28T17:13:50;2.30;73.30
10891;DHT22;5498;50.928;11.598;2023-02-28T17:16:54;2.30;73.00
10891;DHT22;5498;50.928;11.598;2023-02-28T17:19:56;2.40;72.90
10891;DHT22;5498;50.928;11.598;2023-02-28T17:22:59;2.50;72.70
10891;DHT22;5498;50.928;11.598;2023-02-28T17:26:02;2.50;72.70
10891;DHT22;5498;50.928;11.598;2023-02-28T17:29:13;2.50;72.70
10891;DHT22;5498;50.928;11.598;2023-02-28T17:32:16;2.70;73.00
10891;DHT22;5498;50.928;11.598;2023-02-28T17:35:18;2.50;72.70
10891;DHT22;5498;50.928;11.598;2023-02-28T17:38:21;2.60;72.70
10891;DHT22;5498;50.928;11.598;2023-02-28T17:41:23;2.60;73.00
10891;DHT22;5498;50.928;11.598;2023-02-28T17:44:26;2.70;73.20
10891;DHT22;5498;50.928;11.598;2023-02-28T17:47:28;2.60;73.30
10891;DHT22;5498;50.928;11.598;2023-02-28T17:50:30;2.50;73.80
10891;DHT22;5498;50.928;11.598;2023-02-28T17:53:33;2.50;74.10
10891;DHT22;5498;50.928;11.598;2023-02-28T17:56:35;2.50;74.30
10891;DHT22;5498;50.928;11.598;2023-02-28T17:59:37;2.50;74.50
10891;DHT22;5498;50.928;11.598;2023-02-28T18:02:42;2.50;74.50
10891;DHT22;5498;50.928;11.598;2023-02-28T18:05:44;2.60;74.90
10891;DHT22;5498;50.928;11.598;2023-02-28T18:08:47;2.70;75.30
10891;DHT22;5498;50.928;11.598;2023-02-28T18:11:53;2.30;75.40
10891;DHT22;5498;50.928;11.598;2023-02-28T18:14:56;2.30;75.80
10891;DHT22;5498;50.928;11.598;2023-02-28T18:17:57;2.30;76.70
10891;DHT22;5498;50.928;11.598;2023-02-28T18:20:59;2.20;76.20
10891;DHT22;5498;50.928;11.598;2023-02-28T18:24:03;2.10;76.50
10891;DHT22;5498;50.928;11.598;2023-02-28T18:27:05;2.10;76.70
10891;DHT22;5498;50.928;11.598;2023-02-28T18:30:08;2.10;76.80
10891;DHT22;5498;50.928;11.598;2023-02-28T18:33:11;2.00;77.00
10891;DHT22;5498;50.928;11.598;2023-02-28T18:36:13;2.00;77.00
10891;DHT22;5498;50.928;11.598;2023-02-28T18:39:17;1.90;77.40
10891;DHT22;5498;50.928;11.598;2023-02-28T18:42:19;1.90;77.60
10891;DHT22;5498;50.928;11.598;2023-02-28T18:45:21;1.90;77.60
10891;DHT22;5498;50.928;11.598;2023-02-28T18:48:23;1.80;77.80
10891;DHT22;5498;50.928;11.598;2023-02-28T18:51:26;1.80;77.90
10891;DHT22;5498;50.928;11.598;2023-02-28T18:54:31;1.70;78.40
10891;DHT22;5498;50.928;11.598;2023-02-28T18:57:32;2.00;78.50
10891;DHT22;5498;50.928;11.598;2023-02-28T19:00:35;1.90;78.60
10891;DHT22;5498;50.928;11.598;2023-02-28T19:03:37;1.80;78.90
10891;DHT22;5498;50.928;11.598;2023-02-28T19:06:39;1.60;79.10
10891;DHT22;5498;50.928;11.598;2023-02-28T19:09:42;2.00;79.60
10891;DHT22;5498;50.928;11.598;2023-02-28T19:12:44;1.50;79.30
10891;DHT22;5498;50.928;11.598;2023-02-28T19:15:47;1.50;79.30
10891;DHT22;5498;50.928;11.598;2023-02-28T19:18:49;1.40;79.70
10891;DHT22;5498;50.928;11.598;2023-02-28T19:21:52;1.40;79.70
10891;DHT22;5498;50.928;11.598;2023-02-28T19:24:55;1.80;79.90
10891;DHT22;5498;50.928;11.598;2023-02-28T19:27:57;1.30;79.60
10891;DHT22;5498;50.928;11.598;2023-02-28T19:30:59;1.30;80.20
10891;DHT22;5498;50.928;11.598;2023-02-28T19:34:01;1.20;80.50
10891;DHT22;5498;50.928;11.598;2023-02-28T19:37:03;1.20;80.50
10891;DHT22;5498;50.928;11.598;2023-02-28T19:40:08;1.20;80.80
10891;DHT22;5498;50.928;11.598;2023-02-28T19:43:12;1.20;81.10
10891;DHT22;5498;50.928;11.598;2023-02-28T19:46:14;1.20;81.20
10891;DHT22;5498;50.928;11.598;2023-02-28T19:49:18;1.10;81.30
10891;DHT22;5498;50.928;11.598;2023-02-28T19:52:20;1.10;81.50